createdAt,value
2018-03-21T00:06:58.647Z,-1.8
2018-03-21T00:27:59.613Z,-1.6
2018-03-21T00:30:59.660Z,-1.5
2018-03-21T00:33:59.804Z,-1.4
2018-03-21T00:34:59.893Z,-1.3
2018-03-21T00:37:59.957Z,-1.1
2018-03-21T00:41:00.144Z,-3
2018-03-21T00:46:01.193Z,-2.9
2018-03-21T00:50:00.931Z,-2.7
2018-03-21T00:56:00.924Z,-2.6
2018-03-21T00:57:00.905Z,-2.7
2018-03-21T00:58:00.868Z,-2.6
2018-03-21T00:59:00.921Z,-2.7
2018-03-21T01:00:01.006Z,-2.6
2018-03-21T01:09:01.414Z,-2.7
2018-03-21T01:14:01.561Z,-2.9
2018-03-21T01:18:01.817Z,-3
2018-03-21T01:22:01.932Z,-1.1
2018-03-21T01:27:02.190Z,-1.3
2018-03-21T01:31:02.293Z,-1.4
2018-03-21T01:34:02.426Z,-1.5
2018-03-21T01:38:02.628Z,-1.6
2018-03-21T01:43:02.758Z,-1.8
2018-03-21T01:46:02.878Z,-1.9
2018-03-21T01:51:03.090Z,-2
2018-03-21T01:55:03.237Z,-2.1
2018-03-21T02:01:03.488Z,-2.3
2018-03-21T02:05:03.641Z,-2.4
2018-03-21T02:13:04.020Z,-2.5
2018-03-21T02:19:04.318Z,-2.6
2018-03-21T02:20:04.286Z,-2.5
2018-03-21T02:21:04.311Z,-2.6
2018-03-21T02:31:04.757Z,-2.8
2018-03-21T02:44:05.275Z,-2.9
2018-03-21T02:55:05.761Z,-3
2018-03-21T03:04:06.159Z,-3.1
2018-03-21T03:08:06.332Z,-3.3
2018-03-21T03:09:06.381Z,-3.1
2018-03-21T03:12:06.499Z,-3.3
2018-03-21T03:24:06.992Z,-3.4
2018-03-21T03:25:06.984Z,-3.3
2018-03-21T03:29:07.199Z,-3.4
2018-03-21T03:30:07.194Z,-3.3
2018-03-21T03:32:08.043Z,-3.4
2018-03-21T03:44:07.750Z,-3.5
2018-03-21T03:52:08.054Z,-3.6
2018-03-21T03:57:08.331Z,-3.8
2018-03-21T04:02:08.564Z,-3.9
2018-03-21T04:07:08.729Z,-4
2018-03-21T04:14:08.939Z,-4.1
2018-03-21T04:35:09.832Z,-4.3
2018-03-21T04:44:10.198Z,-4.4
2018-03-21T04:54:10.557Z,-4.5
2018-03-21T05:06:11.061Z,-4.6
2018-03-21T05:07:11.167Z,-4.5
2018-03-21T05:08:11.164Z,-4.6
2018-03-21T05:10:11.223Z,-4.5
2018-03-21T05:11:11.257Z,-4.6
2018-03-21T05:12:11.374Z,-4.5
2018-03-21T05:19:11.596Z,-4.4
2018-03-21T05:22:11.704Z,-4.3
2018-03-21T05:28:11.951Z,-4.1
2018-03-21T05:32:12.112Z,-4
2018-03-21T05:39:13.053Z,-3.9
2018-03-21T05:43:14.054Z,-3.8
2018-03-21T05:48:14.353Z,-3.6
2018-03-21T05:53:14.627Z,-3.5
2018-03-21T05:57:14.870Z,-3.4
2018-03-21T06:00:15.048Z,-3.3
2018-03-21T06:04:15.400Z,-3.1
2018-03-21T06:06:15.522Z,-3
2018-03-21T06:08:17.461Z,-2.9
2018-03-21T06:10:19.507Z,-2.8
2018-03-21T06:12:21.457Z,-2.6
2018-03-21T06:14:22.875Z,-2.5
2018-03-21T06:15:23.818Z,-2.4
2018-03-21T06:16:24.819Z,-2.3
2018-03-21T06:22:30.928Z,-1.9
2018-03-21T06:23:31.857Z,-1.8
2018-03-21T06:25:33.847Z,-1.6
2018-03-21T06:27:35.780Z,-1.5
2018-03-21T06:29:37.965Z,-1.4
2018-03-21T06:31:39.782Z,-1.3
2018-03-21T06:32:40.752Z,-1.1
2018-03-21T06:35:43.778Z,-3
2018-03-21T06:37:45.763Z,-2.9
2018-03-21T06:38:46.756Z,-2.7
2018-03-21T06:40:47.812Z,-2.6
2018-03-21T06:41:48.796Z,-2.5
2018-03-21T06:43:50.793Z,-2.4
2018-03-21T06:44:51.736Z,-2.2
2018-03-21T06:45:52.807Z,-2.1
2018-03-21T06:46:53.731Z,-2
2018-03-21T06:47:54.734Z,-1.9
2018-03-21T06:48:55.746Z,-1.6
2018-03-21T06:50:57.771Z,-1.5
2018-03-21T06:51:58.012Z,-1.4
2018-03-21T06:52:58.042Z,-1.3
2018-03-21T06:53:58.125Z,-1
2018-03-21T06:54:58.147Z,-0.6
2018-03-21T06:55:58.209Z,-0.1
2018-03-21T06:56:58.215Z,0.5
2018-03-21T06:57:58.229Z,1
2018-03-21T06:58:58.266Z,1.5
2018-03-21T06:59:58.382Z,1.8
2018-03-21T07:00:58.405Z,2.1
2018-03-21T07:01:58.465Z,2.4
2018-03-21T07:02:58.501Z,2.7
2018-03-21T07:03:58.562Z,3
2018-03-21T07:04:58.609Z,3.5
2018-03-21T07:05:58.647Z,3.7
2018-03-21T07:06:58.688Z,4.2
2018-03-21T07:07:58.690Z,4.7
2018-03-21T07:08:58.783Z,5.4
2018-03-21T07:09:58.777Z,5.7
2018-03-21T07:10:58.835Z,5.9
2018-03-21T07:11:58.867Z,6.2
2018-03-21T07:12:58.887Z,6.9
2018-03-21T07:14:58.985Z,6.7
2018-03-21T07:15:59.021Z,6.6
2018-03-21T07:16:59.054Z,6.7
2018-03-21T07:18:59.172Z,6.9
2018-03-21T07:19:59.244Z,7
2018-03-21T07:21:59.289Z,6.9
2018-03-21T07:22:59.371Z,6.5
2018-03-21T07:23:59.409Z,6.2
2018-03-21T07:24:59.451Z,6
2018-03-21T07:25:59.492Z,5.7
2018-03-21T07:26:59.481Z,5.6
2018-03-21T07:30:59.674Z,5.7
2018-03-21T07:31:59.724Z,5.9
2018-03-21T07:32:59.784Z,6.1
2018-03-21T07:33:59.819Z,6.5
2018-03-21T07:34:59.833Z,6.7
2018-03-21T07:35:59.907Z,7
2018-03-21T07:36:59.925Z,7.4
2018-03-21T07:37:59.968Z,7.6
2018-03-21T07:39:00.037Z,7.9
2018-03-21T07:40:00.103Z,8.1
2018-03-21T07:41:00.091Z,8.3
2018-03-21T07:42:00.140Z,8.4
2018-03-21T07:44:01.044Z,8.5
2018-03-21T07:45:01.208Z,8.6
2018-03-21T07:46:00.967Z,8.8
2018-03-21T07:47:00.980Z,9
2018-03-21T07:48:00.990Z,9.3
2018-03-21T07:49:00.936Z,9.6
2018-03-21T07:50:01.087Z,9.9
2018-03-21T07:51:00.870Z,10.1
2018-03-21T07:52:00.624Z,10.6
2018-03-21T07:53:00.899Z,11.3
2018-03-21T07:54:00.983Z,11.9
2018-03-21T07:55:00.845Z,12.4
2018-03-21T07:56:00.757Z,13
2018-03-21T07:57:01.011Z,13.8
2018-03-21T07:58:00.839Z,14.6
2018-03-21T07:59:00.870Z,15.3
2018-03-21T08:00:01.510Z,15.9
2018-03-21T08:01:00.980Z,16.5
2018-03-21T08:02:00.979Z,17.1
2018-03-21T08:03:01.071Z,17.5
2018-03-21T08:04:01.287Z,17.6
2018-03-21T08:05:01.146Z,18.1
2018-03-21T08:06:01.132Z,18.6
2018-03-21T08:07:01.195Z,19
2018-03-21T08:08:01.219Z,19.5
2018-03-21T08:09:01.251Z,20
2018-03-21T08:10:01.329Z,20.5
2018-03-21T08:11:01.348Z,20.9
2018-03-21T08:12:01.403Z,21.2
2018-03-21T08:13:01.442Z,21.8
2018-03-21T08:14:01.482Z,22.1
2018-03-21T08:15:01.520Z,22.5
2018-03-21T08:16:01.596Z,23
2018-03-21T08:17:01.639Z,23.3
2018-03-21T08:18:01.733Z,23.4
2018-03-21T08:19:01.769Z,23.6
2018-03-21T08:20:01.775Z,24
2018-03-21T08:21:01.780Z,24.3
2018-03-21T08:22:01.868Z,24.1
2018-03-21T08:23:01.907Z,24.4
2018-03-21T08:24:01.969Z,24.6
2018-03-21T08:25:01.974Z,24.7
2018-03-21T08:26:02.036Z,25.1
2018-03-21T08:27:02.340Z,25.5
2018-03-21T08:28:02.240Z,25.8
2018-03-21T08:29:02.172Z,25.6
2018-03-21T08:31:02.256Z,25.8
2018-03-21T08:32:02.315Z,25.9
2018-03-21T08:33:02.319Z,26.2
2018-03-21T08:34:02.355Z,26.5
2018-03-21T08:35:02.409Z,26.8
2018-03-21T08:36:02.418Z,26.9
2018-03-21T08:37:02.421Z,27.1
2018-03-21T08:38:02.529Z,27.4
2018-03-21T08:39:02.492Z,27.5
2018-03-21T08:40:02.556Z,27.8
2018-03-21T08:42:02.625Z,28
2018-03-21T08:43:02.678Z,28.1
2018-03-21T08:44:02.687Z,28.4
2018-03-21T08:45:02.765Z,28.9
2018-03-21T08:46:02.805Z,29.4
2018-03-21T08:47:02.911Z,29.8
2018-03-21T08:49:03.070Z,30.1
2018-03-21T08:50:03.101Z,30.5
2018-03-21T08:51:03.158Z,30.8
2018-03-21T08:52:03.169Z,30.9
2018-03-21T08:54:03.340Z,31.1
2018-03-21T08:55:03.436Z,31.2
2018-03-21T08:56:03.453Z,31.4
2018-03-21T08:58:03.580Z,31.5
2018-03-21T08:59:03.630Z,31.6
2018-03-21T09:06:04.755Z,31.4
2018-03-21T09:07:04.191Z,31.5
2018-03-21T09:08:04.186Z,31.6
2018-03-21T09:09:04.240Z,31.9
2018-03-21T09:10:04.289Z,32.1
2018-03-21T09:11:04.349Z,32.2
2018-03-21T09:12:04.466Z,32.5
2018-03-21T09:13:04.588Z,32.6
2018-03-21T09:14:04.593Z,32.9
2018-03-21T09:15:04.601Z,33.2
2018-03-21T09:16:04.712Z,33.5
2018-03-21T09:17:04.771Z,33.2
2018-03-21T09:18:04.840Z,33
2018-03-21T09:19:04.900Z,32.7
2018-03-21T09:20:04.960Z,32.6
2018-03-21T09:21:04.961Z,32.5
2018-03-21T09:22:05.056Z,32.2
2018-03-21T09:23:05.159Z,32
2018-03-21T09:24:05.201Z,31.8
2018-03-21T09:25:05.224Z,31.6
2018-03-21T09:26:05.372Z,31.8
2018-03-21T09:28:05.468Z,31.6
2018-03-21T09:31:05.635Z,31.5
2018-03-21T09:32:05.656Z,31.2
2018-03-21T09:33:05.694Z,30.8
2018-03-21T09:34:05.703Z,30.4
2018-03-21T09:35:05.768Z,30.3
2018-03-21T09:37:05.853Z,30.5
2018-03-21T09:38:05.916Z,30.8
2018-03-21T09:39:05.952Z,31.1
2018-03-21T09:40:06.010Z,31.4
2018-03-21T09:41:06.041Z,31.5
2018-03-21T09:42:06.089Z,31.6
2018-03-21T09:43:06.169Z,31.8
2018-03-21T09:44:06.158Z,31.9
2018-03-21T09:45:06.230Z,32.1
2018-03-21T09:46:06.280Z,32.2
2018-03-21T09:47:06.367Z,32.4
2018-03-21T09:48:06.333Z,32.5
2018-03-21T09:50:06.482Z,32.7
2018-03-21T09:53:06.621Z,32.5
2018-03-21T09:54:06.580Z,32.1
2018-03-21T09:55:06.672Z,31.8
2018-03-21T09:56:06.667Z,31.2
2018-03-21T09:57:06.720Z,30.9
2018-03-21T09:58:06.741Z,30.5
2018-03-21T09:59:06.791Z,30.6
2018-03-21T10:00:06.821Z,30.8
2018-03-21T10:01:06.868Z,30.9
2018-03-21T10:02:06.901Z,31
2018-03-21T10:04:07.013Z,31.1
2018-03-21T10:05:07.013Z,31.2
2018-03-21T10:06:07.046Z,31.5
2018-03-21T10:07:07.105Z,31.8
2018-03-21T10:09:07.190Z,31.6
2018-03-21T10:12:07.290Z,31.4
2018-03-21T10:15:07.450Z,31.6
2018-03-21T10:16:07.494Z,31.9
2018-03-21T10:17:07.538Z,32
2018-03-21T10:18:07.562Z,32.1
2018-03-21T10:20:07.623Z,32
2018-03-21T10:23:07.753Z,32.2
2018-03-21T10:24:07.796Z,32.4
2018-03-21T10:25:07.777Z,32.6
2018-03-21T10:26:07.863Z,32.7
2018-03-21T10:27:07.913Z,33
2018-03-21T10:28:07.955Z,33.2
2018-03-21T10:29:07.985Z,33.4
2018-03-21T10:30:08.003Z,33.5
2018-03-21T10:33:08.096Z,33.6
2018-03-21T10:34:08.201Z,33.7
2018-03-21T10:35:08.236Z,33.6
2018-03-21T10:36:08.223Z,33.4
2018-03-21T10:38:08.363Z,33.2
2018-03-21T10:40:08.459Z,33.1
2018-03-21T10:42:08.460Z,33.2
2018-03-21T10:43:08.504Z,33.5
2018-03-21T10:44:08.549Z,33.6
2018-03-21T10:46:09.116Z,33.7
2018-03-21T10:47:08.660Z,33.9
2018-03-21T10:48:08.694Z,34
2018-03-21T10:49:08.742Z,34.2
2018-03-21T10:50:08.770Z,34.1
2018-03-21T10:51:08.813Z,34.2
2018-03-21T10:52:08.882Z,34.1
2018-03-21T10:54:08.982Z,33.6
2018-03-21T10:55:08.985Z,33.4
2018-03-21T10:56:09.069Z,32.6
2018-03-21T10:57:09.215Z,32.2
2018-03-21T10:58:09.108Z,31.9
2018-03-21T10:59:09.214Z,31.5
2018-03-21T11:00:09.188Z,30.8
2018-03-21T11:01:09.294Z,31.1
2018-03-21T11:02:09.271Z,31.5
2018-03-21T11:03:09.329Z,31.4
2018-03-21T11:04:09.371Z,32
2018-03-21T11:05:09.412Z,32.6
2018-03-21T11:06:09.495Z,32.9
2018-03-21T11:07:09.501Z,33.1
2018-03-21T11:08:09.516Z,33.4
2018-03-21T11:09:09.602Z,33.9
2018-03-21T11:10:09.584Z,34.1
2018-03-21T11:11:09.645Z,34.4
2018-03-21T11:12:09.700Z,34.5
2018-03-21T11:14:09.748Z,34.6
2018-03-21T11:15:09.783Z,34.9
2018-03-21T11:16:09.830Z,34.7
2018-03-21T11:17:09.855Z,34.6
2018-03-21T11:18:09.898Z,34.5
2018-03-21T11:21:10.012Z,34.6
2018-03-21T11:22:10.086Z,34.9
2018-03-21T11:24:10.162Z,35.1
2018-03-21T11:25:10.257Z,35.2
2018-03-21T11:26:10.288Z,35.4
2018-03-21T11:27:10.270Z,35.5
2018-03-21T11:29:10.332Z,35.6
2018-03-21T11:33:10.520Z,35.7
2018-03-21T11:34:10.590Z,35.6
2018-03-21T11:35:10.593Z,35.5
2018-03-21T11:36:10.656Z,35.2
2018-03-21T11:37:10.698Z,35.1
2018-03-21T11:38:10.774Z,34.9
2018-03-21T11:40:10.916Z,35
2018-03-21T11:43:10.961Z,35.1
2018-03-21T11:44:10.975Z,35.2
2018-03-21T11:47:11.135Z,35.1
2018-03-21T11:48:11.130Z,35
2018-03-21T11:49:11.204Z,34.7
2018-03-21T11:50:11.241Z,34.6
2018-03-21T11:51:11.320Z,34.5
2018-03-21T11:52:11.329Z,34.4
2018-03-21T11:54:11.393Z,34.2
2018-03-21T11:56:11.475Z,34.4
2018-03-21T11:58:11.521Z,34.5
2018-03-21T11:59:11.582Z,34.4
2018-03-21T12:01:11.646Z,34.2
2018-03-21T12:02:11.687Z,34.4
2018-03-21T12:03:11.737Z,34.2
2018-03-21T12:05:11.837Z,34.1
2018-03-21T12:06:11.868Z,33.6
2018-03-21T12:07:11.904Z,32.7
2018-03-21T12:08:11.994Z,32.1
2018-03-21T12:10:12.066Z,32.6
2018-03-21T12:11:12.057Z,32.7
2018-03-21T12:12:12.099Z,33
2018-03-21T12:13:12.194Z,32.7
2018-03-21T12:14:12.213Z,32.4
2018-03-21T12:17:12.315Z,32.6
2018-03-21T12:18:12.416Z,32.7
2018-03-21T12:19:12.414Z,32.5
2018-03-21T12:20:12.446Z,32.2
2018-03-21T12:21:12.523Z,32.1
2018-03-21T12:22:12.543Z,32
2018-03-21T12:24:12.622Z,31.8
2018-03-21T12:25:12.677Z,31.5
2018-03-21T12:26:12.718Z,31.4
2018-03-21T12:27:12.729Z,31.2
2018-03-21T12:28:12.753Z,31.4
2018-03-21T12:29:12.790Z,31.6
2018-03-21T12:31:12.921Z,31.9
2018-03-21T12:32:12.946Z,32.2
2018-03-21T12:33:12.985Z,32.4
2018-03-21T12:34:13.122Z,32.6
2018-03-21T12:36:13.137Z,32.2
2018-03-21T12:37:13.184Z,31.8
2018-03-21T12:38:13.233Z,31.4
2018-03-21T12:39:13.235Z,31.1
2018-03-21T12:40:13.318Z,31
2018-03-21T12:41:13.302Z,31.1
2018-03-21T12:42:13.390Z,31.4
2018-03-21T12:43:13.399Z,31.6
2018-03-21T12:45:13.506Z,31.8
2018-03-21T12:46:13.537Z,32.1
2018-03-21T12:47:13.961Z,32.5
2018-03-21T12:48:13.661Z,32.7
2018-03-21T12:49:13.735Z,32.5
2018-03-21T12:50:13.694Z,32.2
2018-03-21T12:51:13.746Z,32.1
2018-03-21T12:52:13.778Z,32.2
2018-03-21T12:53:13.816Z,32.1
2018-03-21T12:55:13.886Z,32.4
2018-03-21T12:56:14.098Z,32.7
2018-03-21T12:57:14.007Z,33
2018-03-21T13:00:14.100Z,32.9
2018-03-21T13:01:14.165Z,32.7
2018-03-21T13:02:14.201Z,32.6
2018-03-21T13:03:14.210Z,32.5
2018-03-21T13:04:14.299Z,32.1
2018-03-21T13:05:14.308Z,31.6
2018-03-21T13:06:14.335Z,31.1
2018-03-21T13:10:14.541Z,31
2018-03-21T13:11:14.574Z,30.9
2018-03-21T13:12:14.533Z,30.6
2018-03-21T13:13:14.582Z,30
2018-03-21T13:14:14.608Z,29.5
2018-03-21T13:15:14.663Z,29.1
2018-03-21T13:16:14.756Z,29
2018-03-21T13:17:14.752Z,29.3
2018-03-21T13:18:14.771Z,29.4
2018-03-21T13:19:14.833Z,29.5
2018-03-21T13:20:14.842Z,29.8
2018-03-21T13:21:14.949Z,30.3
2018-03-21T13:22:14.916Z,30.6
2018-03-21T13:24:14.986Z,30.8
2018-03-21T13:25:15.034Z,30.9
2018-03-21T13:27:15.145Z,31
2018-03-21T13:28:15.187Z,30.8
2018-03-21T13:29:15.258Z,30.5
2018-03-21T13:30:15.267Z,30.3
2018-03-21T13:31:15.265Z,30.1
2018-03-21T13:32:15.333Z,29.9
2018-03-21T13:33:15.384Z,29.6
2018-03-21T13:34:15.472Z,29.3
2018-03-21T13:35:15.511Z,28.9
2018-03-21T13:36:15.567Z,28.6
2018-03-21T13:38:15.648Z,28.7
2018-03-21T13:39:15.662Z,28.9
2018-03-21T13:40:15.712Z,29.1
2018-03-21T13:41:15.750Z,29.4
2018-03-21T13:45:15.926Z,29.5
2018-03-21T13:47:16.013Z,29.6
2018-03-21T13:48:16.050Z,29.5
2018-03-21T13:49:16.081Z,29.6
2018-03-21T13:52:16.247Z,29.5
2018-03-21T13:53:16.301Z,29.6
2018-03-21T13:54:16.368Z,29.5
2018-03-21T13:55:16.413Z,29.4
2018-03-21T13:56:16.431Z,29.3
2018-03-21T13:57:16.495Z,29.1
2018-03-21T13:58:16.580Z,29
2018-03-21T13:59:16.593Z,28.5
2018-03-21T14:00:16.687Z,27.8
2018-03-21T14:01:16.720Z,27
2018-03-21T14:02:16.757Z,26.2
2018-03-21T14:03:16.794Z,25.6
2018-03-21T14:04:16.788Z,25.1
2018-03-21T14:05:16.824Z,24.6
2018-03-21T14:06:16.977Z,24
2018-03-21T14:07:16.928Z,23.4
2018-03-21T14:08:17.034Z,22.8
2018-03-21T14:09:17.001Z,22.2
2018-03-21T14:10:17.123Z,21.9
2018-03-21T14:11:17.157Z,21.5
2018-03-21T14:12:17.257Z,21.8
2018-03-21T14:13:17.247Z,21.9
2018-03-21T14:14:17.257Z,22.4
2018-03-21T14:15:17.296Z,22.8
2018-03-21T14:16:17.346Z,23.1
2018-03-21T14:17:17.382Z,23.4
2018-03-21T14:18:17.524Z,23.5
2018-03-21T14:23:17.746Z,23.1
2018-03-21T14:24:17.726Z,22.6
2018-03-21T14:25:17.760Z,22.2
2018-03-21T14:26:17.805Z,21.9
2018-03-21T14:27:17.877Z,21.5
2018-03-21T14:28:17.882Z,21.4
2018-03-21T14:29:17.925Z,21.5
2018-03-21T14:30:17.971Z,21.6
2018-03-21T14:32:18.057Z,21.8
2018-03-21T14:34:18.139Z,21.9
2018-03-21T14:35:18.208Z,21.6
2018-03-21T14:36:18.237Z,21.4
2018-03-21T14:37:18.271Z,21
2018-03-21T14:38:18.310Z,20.3
2018-03-21T14:39:18.359Z,19.9
2018-03-21T14:40:18.387Z,19.6
2018-03-21T14:41:18.456Z,19.5
2018-03-21T14:44:18.576Z,19.4
2018-03-21T14:45:18.593Z,19.3
2018-03-21T14:46:18.664Z,19
2018-03-21T14:47:18.686Z,18.8
2018-03-21T14:49:18.808Z,19
2018-03-21T14:50:18.801Z,19.3
2018-03-21T14:51:18.843Z,19.6
2018-03-21T14:52:18.882Z,20
2018-03-21T14:53:18.917Z,19.9
2018-03-21T14:54:18.963Z,19.8
2018-03-21T14:55:19.003Z,20.1
2018-03-21T14:56:19.040Z,20.3
2018-03-21T14:57:19.079Z,20.5
2018-03-21T14:58:19.163Z,20.6
2018-03-21T14:59:19.195Z,20.8
2018-03-21T15:00:19.221Z,20.4
2018-03-21T15:01:19.276Z,20.1
2018-03-21T15:02:19.327Z,20.5
2018-03-21T15:03:19.386Z,20.6
2018-03-21T15:04:19.397Z,20.8
2018-03-21T15:05:19.464Z,20.9
2018-03-21T15:06:19.495Z,21
2018-03-21T15:07:19.534Z,21.1
2018-03-21T15:10:19.649Z,21.2
2018-03-21T15:11:19.690Z,21.4
2018-03-21T15:14:19.750Z,21.1
2018-03-21T15:15:19.852Z,20.5
2018-03-21T15:16:19.881Z,20.1
2018-03-21T15:18:19.965Z,20.3
2018-03-21T15:20:20.015Z,20.4
2018-03-21T15:22:20.137Z,20.5
2018-03-21T15:25:20.228Z,20.4
2018-03-21T15:26:20.309Z,19.9
2018-03-21T15:27:20.346Z,19.8
2018-03-21T15:28:20.353Z,19.6
2018-03-21T15:29:20.394Z,20
2018-03-21T15:30:20.395Z,20.5
2018-03-21T15:31:20.451Z,20.9
2018-03-21T15:32:20.516Z,21
2018-03-21T15:34:20.638Z,21.1
2018-03-21T15:36:20.642Z,20.9
2018-03-21T15:37:20.757Z,20.8
2018-03-21T15:39:20.750Z,20.3
2018-03-21T15:40:20.945Z,19.9
2018-03-21T15:41:21.090Z,19.5
2018-03-21T15:42:20.867Z,19.3
2018-03-21T15:43:20.922Z,19.4
2018-03-21T15:44:21.001Z,19.5
2018-03-21T15:47:21.129Z,19.4
2018-03-21T15:50:21.235Z,19.3
2018-03-21T15:51:21.242Z,19.1
2018-03-21T15:52:21.282Z,18.9
2018-03-21T15:54:21.390Z,18.6
2018-03-21T15:55:21.410Z,18.4
2018-03-21T15:56:21.481Z,18
2018-03-21T15:57:21.457Z,17.4
2018-03-21T15:58:21.592Z,16.5
2018-03-21T15:59:21.568Z,16
2018-03-21T16:00:21.890Z,15.4
2018-03-21T16:01:21.651Z,14.6
2018-03-21T16:02:21.740Z,14
2018-03-21T16:03:21.696Z,13.5
2018-03-21T16:04:21.800Z,13.1
2018-03-21T16:05:21.799Z,12.9
2018-03-21T16:06:21.816Z,12.8
2018-03-21T16:08:21.891Z,12.9
2018-03-21T16:09:21.942Z,13.1
2018-03-21T16:10:22.003Z,13.4
2018-03-21T16:11:22.026Z,13.5
2018-03-21T16:12:22.072Z,13.3
2018-03-21T16:13:22.116Z,12.9
2018-03-21T16:14:22.174Z,12.5
2018-03-21T16:15:22.191Z,12.2
2018-03-21T16:16:22.303Z,12
2018-03-21T16:17:22.306Z,11.9
2018-03-21T16:20:22.463Z,12.1
2018-03-21T16:21:22.494Z,12.2
2018-03-21T16:22:22.656Z,12.1
2018-03-21T16:23:22.664Z,11.9
2018-03-21T16:24:22.692Z,11.6
2018-03-21T16:25:22.771Z,11.5
2018-03-21T16:28:22.894Z,11.3
2018-03-21T16:29:22.918Z,11
2018-03-21T16:30:22.992Z,10.8
2018-03-21T16:31:23.032Z,10.6
2018-03-21T16:32:23.029Z,10.5
2018-03-21T16:33:23.089Z,10.4
2018-03-21T16:34:23.161Z,10.3
2018-03-21T16:35:23.188Z,10
2018-03-21T16:36:23.166Z,9.9
2018-03-21T16:37:23.232Z,9.8
2018-03-21T16:38:23.309Z,9.5
2018-03-21T16:39:23.307Z,9.4
2018-03-21T16:40:23.651Z,9.3
2018-03-21T16:41:23.728Z,9.1
2018-03-21T16:42:23.737Z,9
2018-03-21T16:43:23.806Z,8.8
2018-03-21T16:44:23.859Z,8.5
2018-03-21T16:45:24.064Z,8.3
2018-03-21T16:46:23.904Z,7.9
2018-03-21T16:47:23.946Z,7.7
2018-03-21T16:48:23.979Z,7.5
2018-03-21T16:49:24.280Z,7.2
2018-03-21T16:50:24.054Z,7.1
2018-03-21T16:51:24.089Z,6.9
2018-03-21T16:52:24.133Z,6.7
2018-03-21T16:53:24.191Z,6.6
2018-03-21T16:54:24.239Z,6.5
2018-03-21T16:55:24.279Z,6.4
2018-03-21T16:56:24.327Z,6.2
2018-03-21T16:57:24.379Z,6.1
2018-03-21T16:58:24.426Z,6
2018-03-21T16:59:24.428Z,5.7
2018-03-21T17:01:24.516Z,5.6
2018-03-21T17:02:24.632Z,5.5
2018-03-21T17:03:24.640Z,5.4
2018-03-21T17:04:24.698Z,5.2
2018-03-21T17:06:24.729Z,5.1
2018-03-21T17:07:24.764Z,5
2018-03-21T17:08:24.802Z,4.9
2018-03-21T17:10:24.908Z,4.7
2018-03-21T17:12:24.967Z,4.6
2018-03-21T17:14:25.019Z,4.5
2018-03-21T17:15:25.054Z,4.4
2018-03-21T17:17:25.124Z,4.2
2018-03-21T17:20:25.325Z,4.1
2018-03-21T17:22:25.407Z,4
2018-03-21T17:24:25.471Z,3.9
2018-03-21T17:28:25.584Z,3.7
2018-03-21T17:31:25.759Z,3.6
2018-03-21T17:34:25.882Z,3.5
2018-03-21T17:37:25.995Z,3.4
2018-03-21T17:38:25.999Z,3.5
2018-03-21T17:39:26.062Z,3.4
2018-03-21T17:43:26.192Z,3.2
2018-03-21T17:52:26.538Z,3.1
2018-03-21T18:15:27.531Z,3.2
2018-03-21T18:27:28.017Z,3.4
2018-03-21T18:40:28.617Z,3.5
2018-03-21T18:43:28.718Z,3.4
2018-03-21T19:09:29.732Z,3.2
2018-03-21T19:10:29.768Z,3.4
2018-03-21T19:11:29.829Z,3.2
2018-03-21T19:21:30.264Z,3.2
2018-03-21T19:38:30.974Z,3.2
2018-03-21T19:39:30.999Z,3.1
2018-03-21T19:40:31.117Z,3.2
2018-03-21T19:41:31.078Z,3.1
2018-03-21T20:12:32.370Z,3
2018-03-21T20:13:32.429Z,3.1
2018-03-21T20:14:32.475Z,3
2018-03-21T20:33:33.322Z,2.9
2018-03-21T20:34:33.344Z,3
2018-03-21T20:36:33.527Z,2.9
2018-03-21T20:40:33.576Z,3
2018-03-21T20:41:33.627Z,2.9
2018-03-21T20:58:34.463Z,2.7
2018-03-21T21:29:36.371Z,2.6
2018-03-21T21:31:36.529Z,2.7
2018-03-21T21:35:36.692Z,2.6
2018-03-21T22:02:38.333Z,2.7
2018-03-21T22:04:38.425Z,2.6
2018-03-21T22:05:38.564Z,2.7
2018-03-21T22:06:38.534Z,2.6
2018-03-21T22:07:38.541Z,2.7
2018-03-21T23:04:41.551Z,2.6
2018-03-21T23:12:41.863Z,2.5
2018-03-21T23:13:41.888Z,2.6
2018-03-21T23:14:41.911Z,2.5
